Time;durP1;ratioP1;P1;durP2;ratioP2;P2;SDS_P1;SDS_P2;PMS_P1;PMS_P2;Temp;Humidity;BMP_temperature;BMP_pressure;BME280_temperature;BME280_humidity;BME280_pressure;Samples;Min_cycle;Max_cycle;Signal;HPM_P1;HPM_P2
2021/09/12 00:02:18;;;;;;;37.97;13.43;;;17.80;99.90;;;;;;4910679;29;20024;-74
2021/09/12 00:04:44;;;;;;;30.00;12.52;;;17.70;99.90;;;;;;4911665;29;20037;-73
2021/09/12 00:07:10;;;;;;;30.05;12.45;;;17.70;99.90;;;;;;4910471;29;20505;-75
2021/09/12 00:09:36;;;;;;;37.42;13.05;;;17.60;99.90;;;;;;4911312;29;20039;-73
2021/09/12 00:12:02;;;;;;;32.15;14.30;;;17.60;99.90;;;;;;4911661;29;20091;-74
2021/09/12 00:14:27;;;;;;;28.33;11.98;;;17.70;99.90;;;;;;4911621;29;20506;-73
2021/09/12 00:16:53;;;;;;;26.25;11.73;;;17.70;99.90;;;;;;4911195;29;20020;-73
2021/09/12 00:19:19;;;;;;;28.38;12.32;;;17.70;99.90;;;;;;4911321;29;20053;-76
2021/09/12 00:21:45;;;;;;;33.35;13.18;;;17.70;99.90;;;;;;4911731;29;20032;-74
2021/09/12 00:24:11;;;;;;;27.65;11.85;;;17.60;99.90;;;;;;4911268;29;20044;-72
2021/09/12 00:26:36;;;;;;;34.85;11.27;;;17.70;99.90;;;;;;4910008;29;20037;-75
2021/09/12 00:29:03;;;;;;;36.53;12.20;;;17.60;99.90;;;;;;4911354;29;20039;-73
2021/09/12 00:31:29;;;;;;;27.05;11.60;;;17.60;99.90;;;;;;4909622;29;20041;-73
2021/09/12 00:33:55;;;;;;;30.02;11.98;;;17.50;99.90;;;;;;4911150;29;20504;-72
2021/09/12 00:36:21;;;;;;;30.58;12.70;;;17.60;99.90;;;;;;4911282;29;20029;-71
2021/09/12 00:38:46;;;;;;;33.92;13.93;;;17.70;99.90;;;;;;4910826;29;20040;-72
2021/09/12 00:41:12;;;;;;;31.88;12.82;;;17.60;99.90;;;;;;4911067;29;20114;-70
2021/09/12 00:43:38;;;;;;;36.50;13.05;;;17.60;99.90;;;;;;4911044;29;20052;-71
2021/09/12 00:46:06;;;;;;;32.20;12.85;;;17.50;99.90;;;;;;4909190;29;20053;-73
2021/09/12 00:48:37;;;;;;;33.80;13.40;;;17.50;99.90;;;;;;4911155;29;20040;-72
2021/09/12 00:51:04;;;;;;;38.33;15.20;;;17.50;99.90;;;;;;4911170;29;20053;-71
2021/09/12 00:53:31;;;;;;;32.80;12.57;;;17.50;99.90;;;;;;4910461;29;20582;-72
2021/09/12 00:56:00;;;;;;;29.30;13.63;;;17.60;99.90;;;;;;4910948;29;20033;-71
2021/09/12 00:58:28;;;;;;;28.08;12.13;;;17.50;99.90;;;;;;4910816;29;20438;-70
2021/09/12 01:00:55;;;;;;;36.33;12.25;;;17.50;99.90;;;;;;4910427;29;20031;-71
2021/09/12 01:03:20;;;;;;;29.77;12.00;;;17.50;99.90;;;;;;4910914;29;20088;-72
2021/09/12 01:05:46;;;;;;;32.10;12.05;;;17.50;99.90;;;;;;4910533;29;20056;-75
2021/09/12 01:08:12;;;;;;;38.13;12.95;;;17.50;99.90;;;;;;4909051;29;20041;-74
2021/09/12 01:10:40;;;;;;;29.88;12.57;;;17.50;99.90;;;;;;4910727;29;20036;-75
2021/09/12 01:13:05;;;;;;;26.52;11.43;;;17.50;99.90;;;;;;4910626;29;20028;-74
2021/09/12 01:15:32;;;;;;;27.02;13.15;;;17.40;99.90;;;;;;4910353;29;20032;-73
2021/09/12 01:17:58;;;;;;;33.97;12.60;;;17.50;99.90;;;;;;4910365;29;20513;-73
2021/09/12 01:20:23;;;;;;;32.40;13.63;;;17.50;99.90;;;;;;4910234;29;20021;-71
2021/09/12 01:22:50;;;;;;;30.42;12.77;;;17.50;99.90;;;;;;4909501;29;20044;-72
2021/09/12 01:25:17;;;;;;;38.13;13.27;;;17.40;99.90;;;;;;4908965;29;20044;-73
2021/09/12 01:27:43;;;;;;;34.95;14.00;;;17.40;99.90;;;;;;4910174;29;20061;-71
2021/09/12 01:30:10;;;;;;;31.48;13.23;;;17.50;99.90;;;;;;4908881;29;20108;-76
2021/09/12 01:32:36;;;;;;;35.95;13.98;;;17.50;99.90;;;;;;4910368;29;20466;-77
2021/09/12 01:35:03;;;;;;;27.80;12.35;;;17.40;99.90;;;;;;4910056;29;20032;-75
2021/09/12 01:37:28;;;;;;;31.55;11.23;;;17.40;99.90;;;;;;4910047;29;20881;-74
2021/09/12 01:39:54;;;;;;;31.88;13.10;;;17.50;99.90;;;;;;4908754;29;20097;-76
2021/09/12 01:42:19;;;;;;;38.08;13.23;;;17.40;99.90;;;;;;4909506;29;20057;-75
2021/09/12 01:44:46;;;;;;;34.00;13.20;;;17.40;99.90;;;;;;4914683;29;20051;-74
2021/09/12 01:47:12;;;;;;;32.88;12.88;;;17.40;99.90;;;;;;4928921;29;20059;-74
2021/09/12 01:49:38;;;;;;;31.23;12.57;;;17.40;99.90;;;;;;4928667;29;20036;-74
2021/09/12 01:52:04;;;;;;;33.70;12.60;;;17.40;99.90;;;;;;4911665;29;20032;-73
2021/09/12 01:54:29;;;;;;;25.73;12.02;;;17.40;99.90;;;;;;4928891;29;20028;-73
2021/09/12 01:56:55;;;;;;;35.78;13.68;;;17.40;99.90;;;;;;4928037;29;20047;-74
2021/09/12 01:59:21;;;;;;;28.73;11.77;;;17.40;99.90;;;;;;4928440;29;20036;-75
2021/09/12 02:01:47;;;;;;;32.00;11.75;;;17.20;99.90;;;;;;4928710;29;20036;-71
2021/09/12 02:04:12;;;;;;;30.70;11.60;;;17.30;99.90;;;;;;4928234;29;20046;-74
2021/09/12 02:06:38;;;;;;;34.88;12.32;;;17.40;99.90;;;;;;4928102;29;20032;-72
2021/09/12 02:09:04;;;;;;;28.52;13.00;;;17.30;99.90;;;;;;4928240;29;20028;-73
2021/09/12 02:11:29;;;;;;;27.50;12.10;;;17.20;99.90;;;;;;4928295;29;20055;-74
2021/09/12 02:13:55;;;;;;;25.67;12.48;;;17.20;99.90;;;;;;4929047;29;20055;-73
2021/09/12 02:16:22;;;;;;;31.45;13.05;;;17.20;99.90;;;;;;4935870;29;21452;-74
2021/09/12 02:18:54;;;;;;;35.25;13.15;;;17.20;99.90;;;;;;4933893;29;20027;-72
2021/09/12 02:21:19;;;;;;;30.55;12.55;;;17.20;99.90;;;;;;4929792;29;20088;-73
2021/09/12 02:23:45;;;;;;;41.95;12.48;;;17.20;99.90;;;;;;4928123;29;20047;-74
2021/09/12 02:26:11;;;;;;;37.40;14.55;;;17.20;99.90;;;;;;4927726;29;20441;-75
2021/09/12 02:28:36;;;;;;;28.02;11.32;;;17.20;99.90;;;;;;4928450;29;20043;-72
2021/09/12 02:31:02;;;;;;;35.30;12.63;;;17.10;99.90;;;;;;4928079;29;20028;-72
2021/09/12 02:33:28;;;;;;;33.33;12.70;;;17.10;99.90;;;;;;4927673;29;20032;-73
2021/09/12 02:35:53;;;;;;;31.30;13.63;;;17.00;99.90;;;;;;4928294;29;20080;-72
2021/09/12 02:38:19;;;;;;;27.25;12.50;;;17.10;99.90;;;;;;4910806;29;20047;-71
2021/09/12 02:40:44;;;;;;;38.63;13.88;;;17.10;99.90;;;;;;4927984;29;20020;-74
2021/09/12 02:43:10;;;;;;;30.05;12.10;;;17.10;99.90;;;;;;4928146;29;20039;-73
2021/09/12 02:45:36;;;;;;;34.60;13.05;;;17.10;99.90;;;;;;4927643;29;20040;-73
2021/09/12 02:48:01;;;;;;;33.67;14.57;;;17.10;99.90;;;;;;4910894;29;20024;-73
2021/09/12 02:50:27;;;;;;;32.03;13.55;;;17.00;99.90;;;;;;4928079;29;20060;-73
2021/09/12 02:52:53;;;;;;;45.03;13.80;;;17.00;99.90;;;;;;4927794;29;20036;-73
2021/09/12 02:55:18;;;;;;;37.25;14.00;;;17.00;99.90;;;;;;4927957;29;20024;-74
2021/09/12 02:57:44;;;;;;;40.45;12.93;;;17.00;99.90;;;;;;4928005;29;20036;-72
2021/09/12 03:00:11;;;;;;;31.58;13.48;;;17.00;99.90;;;;;;4927521;29;20024;-74
2021/09/12 03:02:38;;;;;;;32.38;12.85;;;17.00;99.90;;;;;;4928075;29;20035;-74
2021/09/12 03:05:04;;;;;;;33.15;13.95;;;17.00;99.90;;;;;;4928002;29;20463;-74
2021/09/12 03:07:29;;;;;;;34.80;12.52;;;17.00;99.90;;;;;;4927403;29;20055;-75
2021/09/12 03:09:55;;;;;;;33.72;13.88;;;17.00;99.90;;;;;;4927949;29;20108;-75
2021/09/12 03:12:20;;;;;;;29.20;12.00;;;16.90;99.90;;;;;;4927866;29;20032;-72
2021/09/12 03:14:46;;;;;;;38.45;14.10;;;17.00;99.90;;;;;;4927336;29;20039;-72
2021/09/12 03:17:12;;;;;;;35.65;14.73;;;17.00;99.90;;;;;;4910838;29;20123;-74
2021/09/12 03:19:39;;;;;;;41.58;13.85;;;17.00;99.90;;;;;;4910572;29;20039;-76
2021/09/12 03:22:05;;;;;;;36.75;14.45;;;17.00;99.90;;;;;;4927602;29;20044;-74
2021/09/12 03:24:31;;;;;;;31.10;14.15;;;17.00;99.90;;;;;;4927738;29;20044;-75
2021/09/12 03:26:56;;;;;;;35.83;13.63;;;17.10;99.90;;;;;;4910662;29;20036;-75
2021/09/12 03:29:22;;;;;;;35.17;14.70;;;17.10;99.90;;;;;;4927262;29;20196;-76
2021/09/12 03:31:47;;;;;;;33.38;13.75;;;17.00;99.90;;;;;;4927656;29;20031;-74
2021/09/12 03:34:13;;;;;;;39.75;14.27;;;17.10;99.90;;;;;;4927371;29;20072;-76
2021/09/12 03:36:39;;;;;;;42.55;13.60;;;17.10;99.90;;;;;;4927703;29;20039;-73
2021/09/12 03:39:06;;;;;;;32.00;13.55;;;17.10;99.90;;;;;;4910671;29;20034;-73
2021/09/12 03:41:31;;;;;;;35.78;12.98;;;17.10;99.90;;;;;;4910161;29;20036;-73
2021/09/12 03:43:57;;;;;;;45.15;15.20;;;17.10;99.90;;;;;;4910285;29;20054;-74
2021/09/12 03:46:23;;;;;;;39.60;12.80;;;17.10;99.90;;;;;;4930040;29;20493;-76
2021/09/12 03:48:48;;;;;;;33.70;13.70;;;17.10;99.90;;;;;;4913417;29;20039;-72
2021/09/12 03:51:14;;;;;;;41.40;14.77;;;17.10;99.90;;;;;;4914015;29;20036;-74
2021/09/12 03:53:40;;;;;;;35.22;13.68;;;17.10;99.90;;;;;;4931095;29;20043;-74
2021/09/12 03:56:06;;;;;;;31.52;11.70;;;17.10;99.90;;;;;;4930489;29;20040;-74
2021/09/12 03:58:32;;;;;;;35.45;13.90;;;17.10;99.90;;;;;;4930896;29;20035;-73
2021/09/12 04:00:57;;;;;;;37.83;14.65;;;17.00;99.90;;;;;;4930543;29;20025;-71
2021/09/12 04:03:23;;;;;;;35.25;13.55;;;17.10;99.90;;;;;;4930319;29;20084;-72
2021/09/12 04:05:48;;;;;;;34.60;12.18;;;17.10;99.90;;;;;;4930589;29;20430;-71
2021/09/12 04:08:14;;;;;;;32.72;14.25;;;17.10;99.90;;;;;;4930472;29;20552;-73
2021/09/12 04:10:40;;;;;;;29.83;12.50;;;17.10;99.90;;;;;;4930258;29;20048;-72
2021/09/12 04:13:05;;;;;;;37.88;13.93;;;17.10;99.90;;;;;;4930764;29;20024;-74
2021/09/12 04:15:31;;;;;;;29.92;12.50;;;17.00;99.90;;;;;;4913332;29;20115;-74
2021/09/12 04:17:58;;;;;;;36.72;13.60;;;17.00;99.90;;;;;;4930018;29;21051;-72
2021/09/12 04:20:23;;;;;;;37.47;13.32;;;16.90;99.90;;;;;;4930217;29;20702;-73
2021/09/12 04:22:49;;;;;;;34.83;14.30;;;17.00;99.90;;;;;;4929926;29;20036;-75
2021/09/12 04:25:15;;;;;;;35.55;14.65;;;17.00;99.90;;;;;;4930084;29;20047;-75
2021/09/12 04:27:40;;;;;;;33.63;13.95;;;17.00;99.90;;;;;;4930479;29;20028;-74
2021/09/12 04:30:09;;;;;;;32.00;12.68;;;17.00;99.90;;;;;;4930190;29;20065;-74
2021/09/12 04:32:34;;;;;;;36.88;14.60;;;17.00;99.90;;;;;;4924810;29;20035;-74
2021/09/12 04:35:00;;;;;;;31.27;13.25;;;17.00;99.90;;;;;;4919465;29;20424;-72
2021/09/12 04:37:26;;;;;;;33.25;13.32;;;17.00;99.90;;;;;;4910652;29;20056;-73
2021/09/12 04:39:51;;;;;;;38.60;13.68;;;17.00;99.90;;;;;;4912030;29;20037;-74
2021/09/12 04:42:17;;;;;;;48.65;12.13;;;17.00;99.90;;;;;;4926945;29;20492;-74
2021/09/12 04:44:42;;;;;;;47.78;13.75;;;17.00;99.90;;;;;;4927677;29;20060;-75
2021/09/12 04:47:14;;;;;;;38.20;14.00;;;17.00;99.90;;;;;;4929622;29;20061;-73
2021/09/12 04:49:40;;;;;;;31.90;13.45;;;17.00;99.90;;;;;;4923915;29;20032;-75
2021/09/12 04:52:07;;;;;;;35.50;12.85;;;17.00;99.90;;;;;;4911229;29;20032;-72
2021/09/12 04:54:33;;;;;;;29.80;12.43;;;17.00;99.90;;;;;;4911234;29;20024;-73
2021/09/12 04:56:58;;;;;;;33.63;13.43;;;17.00;99.90;;;;;;4910287;29;20056;-75
2021/09/12 04:59:24;;;;;;;32.60;12.60;;;17.00;99.90;;;;;;4910268;29;20096;-75
2021/09/12 05:01:49;;;;;;;35.67;14.85;;;17.00;99.90;;;;;;4910790;29;20037;-73
2021/09/12 05:04:15;;;;;;;27.50;12.77;;;17.00;99.90;;;;;;4910261;29;20064;-74
2021/09/12 05:06:40;;;;;;;38.92;13.57;;;17.00;99.90;;;;;;4910610;29;20037;-73
2021/09/12 05:09:06;;;;;;;46.22;13.82;;;17.00;99.90;;;;;;4910523;29;20080;-74
2021/09/12 05:11:32;;;;;;;41.75;13.15;;;17.00;99.90;;;;;;4910300;29;20031;-73
2021/09/12 05:13:57;;;;;;;41.90;14.90;;;17.00;99.90;;;;;;4910316;29;20535;-74
2021/09/12 05:16:23;;;;;;;34.80;13.60;;;17.00;99.90;;;;;;4910235;29;20473;-73
2021/09/12 05:18:50;;;;;;;42.10;13.88;;;17.00;99.90;;;;;;4909871;29;20060;-72
2021/09/12 05:21:17;;;;;;;34.75;12.40;;;17.00;99.90;;;;;;4910191;29;20381;-75
2021/09/12 05:23:43;;;;;;;33.67;13.63;;;17.10;99.90;;;;;;4910168;29;20040;-73
2021/09/12 05:26:08;;;;;;;41.10;14.60;;;17.10;99.90;;;;;;4909801;29;20077;-75
2021/09/12 05:28:34;;;;;;;36.17;14.93;;;17.10;99.90;;;;;;4909186;29;20068;-73
2021/09/12 05:31:01;;;;;;;30.83;12.63;;;17.10;99.90;;;;;;4893134;29;20025;-74
2021/09/12 05:33:26;;;;;;;41.13;14.73;;;17.10;99.90;;;;;;4909655;29;20070;-73
2021/09/12 05:35:52;;;;;;;31.60;12.80;;;17.20;99.90;;;;;;4909993;29;20029;-73
2021/09/12 05:38:18;;;;;;;36.45;14.10;;;17.10;99.90;;;;;;4892976;29;20083;-75
2021/09/12 05:40:43;;;;;;;40.38;14.18;;;17.20;99.90;;;;;;4909463;29;20039;-74
2021/09/12 05:43:10;;;;;;;28.48;13.35;;;17.10;99.90;;;;;;4911807;29;20040;-74
2021/09/12 05:45:38;;;;;;;32.20;13.98;;;17.20;99.90;;;;;;4918831;29;20040;-73
2021/09/12 05:48:04;;;;;;;33.72;14.55;;;17.20;99.90;;;;;;4902550;29;20039;-75
2021/09/12 05:50:29;;;;;;;35.83;13.93;;;17.20;99.90;;;;;;4914107;29;20028;-75
2021/09/12 05:52:55;;;;;;;35.92;14.60;;;17.30;99.90;;;;;;4917906;29;20036;-75
2021/09/12 05:55:21;;;;;;;27.00;12.93;;;17.20;99.90;;;;;;4916636;29;20036;-76
2021/09/12 05:57:46;;;;;;;26.67;12.25;;;17.20;99.90;;;;;;4923729;29;20064;-75
2021/09/12 06:00:12;;;;;;;30.02;12.07;;;17.20;99.90;;;;;;4918805;29;20040;-76
2021/09/12 06:02:38;;;;;;;34.47;13.05;;;17.30;99.90;;;;;;4927585;29;20025;-75
2021/09/12 06:05:05;;;;;;;31.30;12.45;;;17.30;99.90;;;;;;4926594;29;20040;-76
2021/09/12 06:07:31;;;;;;;25.45;11.82;;;17.30;99.90;;;;;;4927120;29;20030;-76
2021/09/12 06:09:57;;;;;;;25.25;12.30;;;17.40;99.90;;;;;;4910666;29;20054;-75
2021/09/12 06:12:23;;;;;;;30.02;11.70;;;17.40;99.90;;;;;;4928202;29;20496;-76
2021/09/12 06:14:49;;;;;;;34.25;11.75;;;17.30;99.90;;;;;;4927071;29;20032;-73
2021/09/12 06:17:15;;;;;;;28.77;11.75;;;17.30;99.90;;;;;;4927508;29;20437;-78
2021/09/12 06:19:41;;;;;;;28.55;11.07;;;17.30;99.90;;;;;;4923531;29;20103;-77
2021/09/12 06:22:08;;;;;;;36.75;11.07;;;17.40;99.90;;;;;;4912730;29;20040;-75
2021/09/12 06:24:34;;;;;;;38.60;11.93;;;17.30;99.90;;;;;;4908994;29;20095;-74
2021/09/12 06:27:00;;;;;;;36.05;12.30;;;17.40;99.90;;;;;;4910911;29;20039;-75
2021/09/12 06:29:25;;;;;;;39.15;11.77;;;17.40;99.90;;;;;;4912703;29;20048;-75
2021/09/12 06:31:51;;;;;;;29.58;11.15;;;17.40;99.90;;;;;;4916720;29;20036;-75
2021/09/12 06:34:17;;;;;;;45.03;13.80;;;17.40;99.90;;;;;;4917187;29;20032;-77
2021/09/12 06:36:43;;;;;;;30.70;12.43;;;17.50;99.90;;;;;;4910080;29;20040;-77
2021/09/12 06:39:09;;;;;;;27.02;11.10;;;17.50;99.90;;;;;;4928040;29;20030;-75
2021/09/12 06:41:34;;;;;;;30.63;12.27;;;17.60;99.90;;;;;;4911380;29;20088;-76
2021/09/12 06:44:00;;;;;;;30.23;11.50;;;17.60;99.90;;;;;;4908107;29;20036;-73
2021/09/12 06:46:26;;;;;;;25.00;10.32;;;17.60;99.90;;;;;;4928201;29;20056;-76
2021/09/12 06:48:51;;;;;;;37.72;10.82;;;17.60;99.90;;;;;;4927368;29;20032;-75
2021/09/12 06:51:17;;;;;;;25.08;11.05;;;17.70;99.90;;;;;;4927708;29;20056;-74
2021/09/12 06:53:42;;;;;;;27.40;11.57;;;17.60;99.90;;;;;;4926175;29;21003;-75
2021/09/12 06:56:08;;;;;;;29.20;10.57;;;17.70;99.90;;;;;;4914436;29;20056;-78
2021/09/12 06:58:33;;;;;;;36.25;11.57;;;17.70;99.90;;;;;;4892288;29;20046;-78
2021/09/12 07:00:59;;;;;;;27.20;9.95;;;17.70;99.90;;;;;;4908758;29;20084;-76
2021/09/12 07:03:25;;;;;;;23.85;10.63;;;17.80;99.90;;;;;;4908423;29;20045;-74
2021/09/12 07:05:51;;;;;;;26.90;10.73;;;17.80;99.90;;;;;;4918387;29;20040;-75
2021/09/12 07:08:17;;;;;;;21.42;10.27;;;17.80;99.90;;;;;;4927424;29;20060;-76
2021/09/12 07:10:42;;;;;;;23.55;10.25;;;17.80;99.90;;;;;;4910282;29;20867;-75
2021/09/12 07:13:08;;;;;;;24.98;9.15;;;17.90;99.90;;;;;;4919908;29;20033;-77
2021/09/12 07:15:34;;;;;;;23.98;10.25;;;17.90;99.90;;;;;;4912829;29;20033;-77
2021/09/12 07:18:00;;;;;;;26.88;11.30;;;17.90;99.90;;;;;;4917805;29;20032;-75
2021/09/12 07:20:25;;;;;;;25.50;9.68;;;17.90;99.90;;;;;;4928808;29;20032;-74
2021/09/12 07:22:51;;;;;;;22.08;9.70;;;17.90;99.90;;;;;;4931285;29;20381;-77
2021/09/12 07:25:17;;;;;;;21.30;8.55;;;17.90;99.90;;;;;;4930840;29;20052;-76
2021/09/12 07:27:42;;;;;;;36.85;11.32;;;18.00;99.90;;;;;;4931485;29;20028;-74
2021/09/12 07:30:10;;;;;;;26.25;9.68;;;18.00;99.90;;;;;;4931095;29;20386;-76
2021/09/12 07:32:35;;;;;;;24.15;10.50;;;18.10;99.90;;;;;;4913392;29;20066;-74
2021/09/12 07:35:01;;;;;;;23.48;9.48;;;18.10;99.90;;;;;;4914271;29;20028;-73
2021/09/12 07:37:26;;;;;;;16.65;7.45;;;18.20;99.90;;;;;;4930091;29;20040;-76
2021/09/12 07:39:52;;;;;;;21.45;9.60;;;18.20;99.90;;;;;;4912203;29;20043;-76
2021/09/12 07:42:17;;;;;;;25.88;9.20;;;18.10;99.90;;;;;;4930507;29;20032;-75
2021/09/12 07:44:43;;;;;;;20.42;8.90;;;18.20;99.90;;;;;;4929893;29;20064;-76
2021/09/12 07:47:09;;;;;;;20.40;8.38;;;18.20;99.90;;;;;;4929656;29;20040;-75
2021/09/12 07:49:35;;;;;;;22.58;8.80;;;18.20;99.90;;;;;;4926429;29;20604;-74
2021/09/12 07:52:00;;;;;;;22.73;10.43;;;18.30;99.90;;;;;;4913293;29;20056;-75
2021/09/12 07:54:26;;;;;;;21.52;10.80;;;18.30;99.90;;;;;;4899054;29;20040;-76
2021/09/12 07:56:51;;;;;;;25.85;9.00;;;18.20;99.90;;;;;;4919183;29;20040;-76
2021/09/12 07:59:17;;;;;;;23.20;9.32;;;18.40;99.90;;;;;;4914090;29;20045;-76
2021/09/12 08:01:43;;;;;;;20.00;8.93;;;18.40;99.90;;;;;;4925154;29;20032;-74
2021/09/12 08:04:09;;;;;;;25.30;9.32;;;18.40;99.90;;;;;;4917374;29;20048;-77
2021/09/12 08:06:35;;;;;;;17.33;8.05;;;18.50;99.90;;;;;;4919984;29;20379;-75
2021/09/12 08:09:00;;;;;;;31.67;10.48;;;18.60;99.90;;;;;;4916430;29;20039;-75
2021/09/12 08:11:26;;;;;;;27.00;9.60;;;18.70;99.90;;;;;;4908992;29;20588;-77
2021/09/12 08:13:51;;;;;;;29.05;10.38;;;18.70;99.90;;;;;;4916756;29;20035;-76
2021/09/12 08:16:17;;;;;;;27.80;9.27;;;18.60;99.90;;;;;;4922212;29;20043;-78
2021/09/12 08:18:52;;;;;;;21.58;8.60;;;18.60;99.90;;;;;;4919540;29;20061;-76
2021/09/12 08:21:17;;;;;;;26.52;9.50;;;18.70;99.90;;;;;;4913789;29;20025;-77
2021/09/12 08:23:43;;;;;;;21.55;9.63;;;18.80;99.90;;;;;;4908241;29;20028;-76
2021/09/12 08:26:10;;;;;;;19.75;8.43;;;19.00;99.90;;;;;;4912493;29;20117;-77
2021/09/12 08:28:35;;;;;;;30.33;9.18;;;19.00;99.90;;;;;;4929677;29;20041;-77
2021/09/12 08:31:01;;;;;;;19.98;8.05;;;19.20;99.90;;;;;;4929555;29;20028;-78
2021/09/12 08:33:27;;;;;;;15.70;7.70;;;19.30;99.90;;;;;;4930034;29;20036;-79
2021/09/12 08:35:52;;;;;;;18.02;8.30;;;19.40;99.90;;;;;;4909942;29;20029;-77
2021/09/12 08:38:18;;;;;;;22.10;8.95;;;19.50;99.90;;;;;;4921981;29;20044;-78
2021/09/12 08:40:44;;;;;;;22.45;8.57;;;19.60;99.90;;;;;;4918455;29;20568;-76
2021/09/12 08:43:12;;;;;;;18.23;7.65;;;19.60;99.90;;;;;;4929799;29;20044;-77
2021/09/12 08:45:38;;;;;;;19.27;7.50;;;19.70;99.90;;;;;;4909548;29;20052;-74
2021/09/12 08:48:05;;;;;;;18.65;7.10;;;19.70;99.90;;;;;;4910678;29;20125;-77
2021/09/12 08:50:31;;;;;;;19.85;8.05;;;19.70;99.90;;;;;;4910281;29;20060;-77
2021/09/12 08:52:56;;;;;;;21.70;8.20;;;19.60;99.90;;;;;;4909214;29;20033;-80
2021/09/12 08:55:25;;;;;;;29.23;7.80;;;19.60;99.90;;;;;;4906104;29;20048;-76
2021/09/12 08:57:52;;;;;;;19.33;6.88;;;19.50;99.90;;;;;;4909452;29;20032;-78
2021/09/12 09:00:22;;;;;;;18.83;7.63;;;19.40;99.90;;;;;;4910517;29;20028;-75
2021/09/12 09:02:48;;;;;;;23.55;8.20;;;19.40;99.90;;;;;;4907871;29;20473;-73
2021/09/12 09:05:14;;;;;;;15.52;7.28;;;19.30;99.90;;;;;;4900559;29;20104;-76
2021/09/12 09:07:40;;;;;;;20.48;8.32;;;19.30;99.90;;;;;;4891705;29;20037;-79
2021/09/12 09:10:20;;;;;;;14.77;6.93;;;19.20;99.90;;;;;;4905883;29;20052;-73
2021/09/12 09:12:47;;;;;;;16.45;7.07;;;19.10;99.90;;;;;;4910433;29;20053;-77
2021/09/12 09:15:15;;;;;;;15.57;7.60;;;19.00;99.90;;;;;;4897766;29;20045;-79
2021/09/12 09:17:43;;;;;;;14.93;7.20;;;19.00;99.90;;;;;;4908709;29;20088;-76
2021/09/12 09:20:12;;;;;;;15.38;7.07;;;19.00;99.90;;;;;;4905330;29;20069;-78
2021/09/12 09:22:58;;;;;;;13.77;7.18;;;19.10;99.90;;;;;;4907151;29;20135;-81
2021/09/12 09:25:26;;;;;;;20.42;7.38;;;19.20;99.90;;;;;;4890001;29;20044;-80
2021/09/12 09:28:12;;;;;;;14.00;6.63;;;19.30;99.90;;;;;;4891503;29;20061;-72
2021/09/12 09:30:48;;;;;;;14.35;6.78;;;19.40;99.90;;;;;;4896505;29;20389;-77
2021/09/12 09:33:37;;;;;;;12.68;6.43;;;19.50;99.90;;;;;;4904161;29;20119;-72
2021/09/12 09:36:04;;;;;;;14.32;6.90;;;19.50;99.90;;;;;;4910210;29;20128;-73
2021/09/12 09:38:37;;;;;;;27.63;7.88;;;19.50;99.90;;;;;;4894404;29;20084;-79
2021/09/12 09:41:12;;;;;;;23.38;8.05;;;19.50;99.90;;;;;;4891100;29;20033;-77
2021/09/12 09:43:47;;;;;;;16.55;6.47;;;19.40;99.90;;;;;;4905228;29;20032;-77
2021/09/12 09:46:28;;;;;;;13.20;5.78;;;19.40;99.90;;;;;;4907888;29;20083;-78
2021/09/12 09:48:55;;;;;;;26.13;7.07;;;19.40;99.90;;;;;;4909004;29;20037;-76
2021/09/12 09:51:22;;;;;;;14.82;6.47;;;19.50;99.90;;;;;;4908870;29;20088;-75
2021/09/12 09:53:48;;;;;;;17.35;7.70;;;19.50;99.90;;;;;;4911622;29;20032;-81
2021/09/12 09:56:14;;;;;;;16.83;5.95;;;19.60;99.90;;;;;;4909368;29;20044;-78
2021/09/12 09:58:43;;;;;;;14.65;6.72;;;19.60;99.90;;;;;;4908509;29;20509;-79
2021/09/12 10:01:08;;;;;;;14.75;7.07;;;19.80;99.90;;;;;;4907465;29;20059;-77
2021/09/12 10:03:34;;;;;;;20.50;6.80;;;19.80;99.90;;;;;;4907720;29;20854;-81
2021/09/12 10:06:01;;;;;;;10.27;5.53;;;19.80;99.90;;;;;;4909128;29;20034;-80
2021/09/12 10:08:27;;;;;;;12.43;6.30;;;19.90;99.90;;;;;;4908010;29;20029;-77
2021/09/12 10:10:54;;;;;;;11.43;6.15;;;20.00;99.90;;;;;;4909006;29;20088;-78
2021/09/12 10:13:21;;;;;;;13.18;6.35;;;20.00;99.90;;;;;;4909305;29;20112;-75
2021/09/12 10:15:50;;;;;;;12.40;5.70;;;20.10;99.90;;;;;;4908116;29;20036;-75
2021/09/12 10:18:27;;;;;;;12.85;6.40;;;20.20;99.90;;;;;;4909421;29;20021;-80
2021/09/12 10:21:19;;;;;;;15.98;6.05;;;20.40;99.90;;;;;;4909573;29;20119;-79
2021/09/12 10:23:59;;;;;;;15.30;5.93;;;20.50;99.90;;;;;;4906309;29;20097;-81
2021/09/12 10:26:40;;;;;;;10.80;4.15;;;20.70;99.90;;;;;;4907800;29;20024;-77
2021/09/12 10:29:46;;;;;;;14.90;4.95;;;20.70;99.90;;;;;;4908185;29;20040;-80
2021/09/12 10:32:32;;;;;;;12.80;5.57;;;20.70;99.90;;;;;;4906637;29;20490;-75
2021/09/12 10:35:18;;;;;;;13.52;5.63;;;20.60;99.90;;;;;;4908017;29;20375;-75
2021/09/12 10:38:01;;;;;;;11.60;5.55;;;20.60;99.90;;;;;;4908336;29;20036;-79
2021/09/12 10:40:49;;;;;;;14.38;5.32;;;20.50;99.90;;;;;;4906501;29;20036;-77
2021/09/12 10:43:35;;;;;;;12.90;5.85;;;20.50;99.90;;;;;;4908674;29;20382;-76
2021/09/12 10:46:04;;;;;;;10.43;4.85;;;20.40;99.90;;;;;;4922551;29;20052;-79
2021/09/12 10:48:36;;;;;;;11.43;5.40;;;20.40;99.90;;;;;;4910603;29;20048;-76
2021/09/12 10:51:18;;;;;;;14.48;5.40;;;20.40;99.90;;;;;;4927937;29;20036;-78
2021/09/12 10:53:45;;;;;;;12.63;5.15;;;20.40;99.90;;;;;;4927519;29;20044;-77
2021/09/12 10:56:29;;;;;;;13.68;5.70;;;20.40;99.90;;;;;;4932076;29;20032;-82
2021/09/12 10:59:10;;;;;;;13.35;5.38;;;20.40;99.90;;;;;;4914598;29;20048;-80
2021/09/12 11:01:43;;;;;;;12.18;5.15;;;20.40;99.90;;;;;;4930939;29;20040;-77
2021/09/12 11:04:13;;;;;;;17.85;5.63;;;20.50;99.90;;;;;;4914569;29;20505;-82
2021/09/12 11:06:44;;;;;;;7.85;4.00;;;20.50;99.90;;;;;;4931152;29;20027;-79
2021/09/12 11:09:23;;;;;;;12.55;4.72;;;20.70;99.90;;;;;;4913465;29;20183;-78
2021/09/12 11:12:01;;;;;;;11.30;4.68;;;20.90;99.90;;;;;;4913394;29;20039;-81
2021/09/12 11:14:29;;;;;;;14.13;6.05;;;20.90;99.90;;;;;;4913191;29;20028;-76
2021/09/12 11:17:04;;;;;;;13.02;5.28;;;21.00;99.90;;;;;;4930385;29;20024;-81
2021/09/12 11:19:29;;;;;;;14.25;5.70;;;21.10;99.90;;;;;;4912886;29;20043;-80
2021/09/12 11:22:08;;;;;;;17.42;5.78;;;21.10;99.90;;;;;;4912867;29;20056;-76
2021/09/12 11:24:34;;;;;;;11.20;4.40;;;21.10;99.90;;;;;;4930705;29;20043;-79
2021/09/12 11:27:02;;;;;;;10.10;4.15;;;21.30;99.90;;;;;;4942920;29;20032;-80
2021/09/12 11:29:33;;;;;;;18.23;6.15;;;21.40;99.90;;;;;;4931021;29;20857;-77
2021/09/12 11:32:02;;;;;;;12.65;4.95;;;21.60;99.90;;;;;;4949062;29;20047;-75
2021/09/12 11:34:27;;;;;;;8.90;4.53;;;21.70;99.90;;;;;;4931534;29;20055;-75
2021/09/12 11:36:59;;;;;;;16.08;4.65;;;21.80;99.90;;;;;;4948316;29;20031;-75
2021/09/12 11:39:31;;;;;;;9.68;4.93;;;21.70;99.90;;;;;;4942375;29;20068;-77
2021/09/12 11:41:59;;;;;;;11.68;5.70;;;21.70;99.90;;;;;;4929451;29;20035;-75
2021/09/12 11:44:51;;;;;;;13.10;4.97;;;21.70;99.90;;;;;;4921630;29;20047;-73
2021/09/12 11:47:25;;;;;;;11.55;4.78;;;21.90;99.90;;;;;;4922959;29;20071;-74
2021/09/12 11:50:04;;;;;;;;;;;22.10;99.90;;;;;;4948961;29;20520;-71
2021/09/12 11:52:31;;;;;;;17.55;5.75;;;22.30;99.90;;;;;;4914848;29;19911;-74
2021/09/12 11:54:57;;;;;;;9.25;4.55;;;22.30;99.90;;;;;;4911605;29;20128;-82
2021/09/12 11:57:23;;;;;;;10.55;3.78;;;22.20;99.90;;;;;;4908167;29;20481;-80
2021/09/12 11:59:50;;;;;;;12.10;4.85;;;22.20;99.90;;;;;;4908682;29;20081;-75
2021/09/12 12:02:25;;;;;;;10.73;4.43;;;22.20;99.90;;;;;;4918791;29;20036;-75
2021/09/12 12:04:54;;;;;;;7.90;4.20;;;22.30;99.90;;;;;;4918654;29;20040;-75
2021/09/12 12:07:36;;;;;;;10.13;3.95;;;22.50;99.90;;;;;;4917299;29;20036;-75
2021/09/12 12:10:04;;;;;;;12.98;4.65;;;22.60;99.90;;;;;;4909997;29;20115;-76
2021/09/12 12:12:38;;;;;;;15.75;3.92;;;22.60;99.90;;;;;;4900132;29;20032;-75
2021/09/12 12:15:06;;;;;;;7.93;4.32;;;22.70;99.90;;;;;;4910250;29;20024;-76
2021/09/12 12:17:32;;;;;;;10.30;4.68;;;22.80;99.90;;;;;;4909781;29;20037;-80
2021/09/12 12:19:58;;;;;;;9.77;3.90;;;22.90;99.90;;;;;;4892217;29;20040;-79
2021/09/12 12:22:34;;;;;;;5.50;3.50;;;22.80;99.90;;;;;;4909652;29;20044;-77
2021/09/12 12:25:00;;;;;;;9.00;4.35;;;22.90;99.90;;;;;;4909727;29;20041;-76
2021/09/12 12:27:28;;;;;;;8.38;4.20;;;23.00;99.90;;;;;;4919356;29;20028;-77
2021/09/12 12:29:55;;;;;;;6.32;3.95;;;23.00;99.90;;;;;;4928621;29;20137;-75
2021/09/12 12:32:21;;;;;;;8.55;4.25;;;23.20;99.90;;;;;;4928797;29;20035;-79
2021/09/12 12:34:50;;;;;;;8.15;4.03;;;23.30;99.90;;;;;;4911996;29;20067;-76